sensor_id;sensor_type;location;lat;lon;timestamp;noise_LAeq;noise_LA_min;noise_LA_max;noise_LA01;noise_LA95
69611;Laerm;56817;52.302;4.844;2022-08-19T00:00:10;40.31;37.38;44.35;;
69611;Laerm;56817;52.302;4.844;2022-08-19T00:00:21;38.69;35.73;43.30;;
69611;Laerm;56817;52.302;4.844;2022-08-19T00:00:31;39.62;36.77;44.66;;
69611;Laerm;56817;52.302;4.844;2022-08-19T00:00:42;38.29;35.84;43.41;;
69611;Laerm;56817;52.302;4.844;2022-08-19T00:00:52;37.14;34.49;41.88;;
69611;Laerm;56817;52.302;4.844;2022-08-19T00:01:02;37.82;34.75;46.52;;
69611;Laerm;56817;52.302;4.844;2022-08-19T00:01:13;37.35;34.24;44.22;;
69611;Laerm;56817;52.302;4.844;2022-08-19T00:01:24;39.86;36.72;47.91;;
69611;Laerm;56817;52.302;4.844;2022-08-19T00:01:35;39.49;35.82;44.68;;
69611;Laerm;56817;52.302;4.844;2022-08-19T00:01:48;39.18;35.98;43.50;;
69611;Laerm;56817;52.302;4.844;2022-08-19T00:01:59;38.61;35.52;42.71;;
69611;Laerm;56817;52.302;4.844;2022-08-19T00:02:09;38.07;35.41;41.91;;
69611;Laerm;56817;52.302;4.844;2022-08-19T00:02:19;38.36;35.36;41.10;;
69611;Laerm;56817;52.302;4.844;2022-08-19T00:02:29;36.69;34.13;39.20;;
69611;Laerm;56817;52.302;4.844;2022-08-19T00:02:40;37.63;34.74;41.04;;
69611;Laerm;56817;52.302;4.844;2022-08-19T00:02:51;38.20;35.18;42.64;;
69611;Laerm;56817;52.302;4.844;2022-08-19T00:03:02;37.52;35.47;40.71;;
69611;Laerm;56817;52.302;4.844;2022-08-19T00:03:12;39.87;35.52;42.33;;
69611;Laerm;56817;52.302;4.844;2022-08-19T00:03:23;39.97;35.33;43.15;;
69611;Laerm;56817;52.302;4.844;2022-08-19T00:03:33;38.97;34.76;42.64;;
69611;Laerm;56817;52.302;4.844;2022-08-19T00:03:43;39.21;36.81;41.76;;
69611;Laerm;56817;52.302;4.844;2022-08-19T00:03:53;45.03;34.95;65.20;;
69611;Laerm;56817;52.302;4.844;2022-08-19T00:04:05;36.80;34.51;39.17;;
69611;Laerm;56817;52.302;4.844;2022-08-19T00:04:16;36.97;34.55;39.39;;
69611;Laerm;56817;52.302;4.844;2022-08-19T00:04:29;38.00;34.67;40.94;;
69611;Laerm;56817;52.302;4.844;2022-08-19T00:04:39;38.33;35.02;41.28;;
69611;Laerm;56817;52.302;4.844;2022-08-19T00:04:50;37.13;34.44;40.35;;
69611;Laerm;56817;52.302;4.844;2022-08-19T00:05:03;37.17;34.16;40.95;;
69611;Laerm;56817;52.302;4.844;2022-08-19T00:05:14;38.41;35.46;41.76;;
69611;Laerm;56817;52.302;4.844;2022-08-19T00:05:24;35.58;33.23;38.13;;
69611;Laerm;56817;52.302;4.844;2022-08-19T00:05:35;37.61;35.39;40.50;;
69611;Laerm;56817;52.302;4.844;2022-08-19T00:05:45;36.64;34.37;39.94;;
69611;Laerm;56817;52.302;4.844;2022-08-19T00:05:55;39.16;34.22;44.87;;
69611;Laerm;56817;52.302;4.844;2022-08-19T00:06:05;37.39;34.67;39.69;;
69611;Laerm;56817;52.302;4.844;2022-08-19T00:06:16;36.02;33.70;39.32;;
69611;Laerm;56817;52.302;4.844;2022-08-19T00:06:27;36.98;34.59;39.57;;
69611;Laerm;56817;52.302;4.844;2022-08-19T00:06:38;37.27;35.16;39.68;;
69611;Laerm;56817;52.302;4.844;2022-08-19T00:06:49;38.10;34.93;41.51;;
69611;Laerm;56817;52.302;4.844;2022-08-19T00:07:00;37.78;34.92;40.25;;
69611;Laerm;56817;52.302;4.844;2022-08-19T00:07:10;37.66;35.05;41.38;;
69611;Laerm;56817;52.302;4.844;2022-08-19T00:07:20;37.91;35.04;40.81;;
69611;Laerm;56817;52.302;4.844;2022-08-19T00:07:31;35.51;33.36;40.46;;
69611;Laerm;56817;52.302;4.844;2022-08-19T00:07:42;36.12;33.23;39.88;;
69611;Laerm;56817;52.302;4.844;2022-08-19T00:07:52;37.21;33.98;41.39;;
69611;Laerm;56817;52.302;4.844;2022-08-19T00:08:03;36.81;34.40;39.74;;
69611;Laerm;56817;52.302;4.844;2022-08-19T00:08:13;39.67;36.03;42.15;;
69611;Laerm;56817;52.302;4.844;2022-08-19T00:08:24;38.05;34.23;40.98;;
69611;Laerm;56817;52.302;4.844;2022-08-19T00:08:34;35.38;32.35;39.55;;
69611;Laerm;56817;52.302;4.844;2022-08-19T00:08:44;35.50;33.30;40.63;;
69611;Laerm;56817;52.302;4.844;2022-08-19T00:08:55;36.73;33.35;40.30;;
69611;Laerm;56817;52.302;4.844;2022-08-19T00:09:06;37.11;33.67;41.96;;
69611;Laerm;56817;52.302;4.844;2022-08-19T00:09:17;36.98;33.69;42.46;;
69611;Laerm;56817;52.302;4.844;2022-08-19T00:09:28;36.11;33.62;40.30;;
69611;Laerm;56817;52.302;4.844;2022-08-19T00:09:39;37.61;35.30;40.95;;
69611;Laerm;56817;52.302;4.844;2022-08-19T00:09:49;36.74;32.58;40.62;;
69611;Laerm;56817;52.302;4.844;2022-08-19T00:09:59;35.80;31.49;39.63;;
69611;Laerm;56817;52.302;4.844;2022-08-19T00:10:10;36.02;32.62;41.86;;
69611;Laerm;56817;52.302;4.844;2022-08-19T00:10:22;38.83;35.08;43.47;;
69611;Laerm;56817;52.302;4.844;2022-08-19T00:10:33;36.99;34.50;40.24;;
69611;Laerm;56817;52.302;4.844;2022-08-19T00:10:44;35.97;33.20;38.50;;
69611;Laerm;56817;52.302;4.844;2022-08-19T00:10:55;37.50;35.23;39.79;;
69611;Laerm;56817;52.302;4.844;2022-08-19T00:11:06;38.39;36.48;41.07;;
69611;Laerm;56817;52.302;4.844;2022-08-19T00:11:17;37.93;35.44;41.24;;
69611;Laerm;56817;52.302;4.844;2022-08-19T00:11:27;37.64;35.16;40.74;;
69611;Laerm;56817;52.302;4.844;2022-08-19T00:11:38;37.50;35.37;41.26;;
69611;Laerm;56817;52.302;4.844;2022-08-19T00:11:48;38.23;35.74;41.32;;
69611;Laerm;56817;52.302;4.844;2022-08-19T00:11:59;38.64;36.13;41.97;;
69611;Laerm;56817;52.302;4.844;2022-08-19T00:12:10;39.77;37.10;42.21;;
69611;Laerm;56817;52.302;4.844;2022-08-19T00:12:21;39.65;36.41;42.55;;
69611;Laerm;56817;52.302;4.844;2022-08-19T00:12:31;38.22;35.53;41.96;;
69611;Laerm;56817;52.302;4.844;2022-08-19T00:12:42;38.50;35.64;41.06;;
69611;Laerm;56817;52.302;4.844;2022-08-19T00:12:52;38.53;35.82;41.08;;
69611;Laerm;56817;52.302;4.844;2022-08-19T00:13:02;37.46;35.36;43.86;;
69611;Laerm;56817;52.302;4.844;2022-08-19T00:13:14;37.95;34.45;40.56;;
69611;Laerm;56817;52.302;4.844;2022-08-19T00:13:25;37.44;35.12;40.40;;
69611;Laerm;56817;52.302;4.844;2022-08-19T00:13:36;37.73;35.44;40.99;;
69611;Laerm;56817;52.302;4.844;2022-08-19T00:13:48;38.50;35.90;41.04;;
69611;Laerm;56817;52.302;4.844;2022-08-19T00:14:00;38.54;35.93;42.24;;
69611;Laerm;56817;52.302;4.844;2022-08-19T00:14:12;40.14;38.06;43.51;;
69611;Laerm;56817;52.302;4.844;2022-08-19T00:14:23;39.92;36.40;42.78;;
69611;Laerm;56817;52.302;4.844;2022-08-19T00:14:34;39.76;36.69;43.06;;
69611;Laerm;56817;52.302;4.844;2022-08-19T00:14:44;40.43;37.56;43.22;;
69611;Laerm;56817;52.302;4.844;2022-08-19T00:14:54;39.34;36.02;43.02;;
69611;Laerm;56817;52.302;4.844;2022-08-19T00:15:05;38.91;36.30;42.43;;
69611;Laerm;56817;52.302;4.844;2022-08-19T00:15:17;38.47;36.53;41.81;;
69611;Laerm;56817;52.302;4.844;2022-08-19T00:15:28;38.45;34.97;41.38;;
69611;Laerm;56817;52.302;4.844;2022-08-19T00:15:38;37.82;35.59;40.27;;
69611;Laerm;56817;52.302;4.844;2022-08-19T00:15:48;39.25;36.62;42.05;;
69611;Laerm;56817;52.302;4.844;2022-08-19T00:15:58;38.66;36.51;42.04;;
69611;Laerm;56817;52.302;4.844;2022-08-19T00:16:10;37.43;34.65;39.71;;
69611;Laerm;56817;52.302;4.844;2022-08-19T00:16:20;37.56;35.39;42.85;;
69611;Laerm;56817;52.302;4.844;2022-08-19T00:16:31;38.68;35.51;42.09;;
69611;Laerm;56817;52.302;4.844;2022-08-19T00:16:44;38.77;35.51;42.00;;
69611;Laerm;56817;52.302;4.844;2022-08-19T00:16:54;38.99;35.89;41.89;;
69611;Laerm;56817;52.302;4.844;2022-08-19T00:17:05;37.63;34.84;39.74;;
69611;Laerm;56817;52.302;4.844;2022-08-19T00:17:16;37.69;34.26;41.20;;
69611;Laerm;56817;52.302;4.844;2022-08-19T00:17:26;39.89;35.39;46.12;;
69611;Laerm;56817;52.302;4.844;2022-08-19T00:17:41;36.65;33.20;42.72;;
69611;Laerm;56817;52.302;4.844;2022-08-19T00:17:51;35.59;32.86;37.61;;
69611;Laerm;56817;52.302;4.844;2022-08-19T00:18:01;35.45;33.40;37.31;;
69611;Laerm;56817;52.302;4.844;2022-08-19T00:18:12;37.30;34.39;39.91;;
69611;Laerm;56817;52.302;4.844;2022-08-19T00:18:22;38.21;35.45;40.53;;
69611;Laerm;56817;52.302;4.844;2022-08-19T00:18:33;39.07;35.83;42.34;;
69611;Laerm;56817;52.302;4.844;2022-08-19T00:18:43;40.72;37.36;43.82;;
69611;Laerm;56817;52.302;4.844;2022-08-19T00:18:54;36.45;33.78;41.44;;
69611;Laerm;56817;52.302;4.844;2022-08-19T00:19:05;35.71;32.86;38.83;;
69611;Laerm;56817;52.302;4.844;2022-08-19T00:19:16;36.41;33.68;41.25;;
69611;Laerm;56817;52.302;4.844;2022-08-19T00:19:26;37.29;33.98;39.45;;
69611;Laerm;56817;52.302;4.844;2022-08-19T00:19:36;37.70;34.44;40.31;;
69611;Laerm;56817;52.302;4.844;2022-08-19T00:19:47;39.52;35.98;42.53;;
69611;Laerm;56817;52.302;4.844;2022-08-19T00:19:57;38.97;36.23;42.11;;
69611;Laerm;56817;52.302;4.844;2022-08-19T00:20:09;38.33;36.27;40.48;;
69611;Laerm;56817;52.302;4.844;2022-08-19T00:20:20;37.80;35.52;39.91;;
69611;Laerm;56817;52.302;4.844;2022-08-19T00:20:31;41.67;37.05;48.27;;
69611;Laerm;56817;52.302;4.844;2022-08-19T00:20:41;41.14;36.12;49.65;;
69611;Laerm;56817;52.302;4.844;2022-08-19T00:20:52;38.61;35.85;42.98;;
69611;Laerm;56817;52.302;4.844;2022-08-19T00:21:02;39.31;35.62;43.81;;
69611;Laerm;56817;52.302;4.844;2022-08-19T00:21:16;39.79;36.22;45.27;;
69611;Laerm;56817;52.302;4.844;2022-08-19T00:21:27;39.81;36.56;42.76;;
69611;Laerm;56817;52.302;4.844;2022-08-19T00:21:38;38.88;36.05;41.91;;
69611;Laerm;56817;52.302;4.844;2022-08-19T00:21:49;39.09;35.79;41.61;;
69611;Laerm;56817;52.302;4.844;2022-08-19T00:21:59;39.55;36.58;42.85;;
69611;Laerm;56817;52.302;4.844;2022-08-19T00:22:10;40.16;37.62;45.57;;
69611;Laerm;56817;52.302;4.844;2022-08-19T00:22:20;40.04;37.45;44.58;;
69611;Laerm;56817;52.302;4.844;2022-08-19T00:22:30;39.58;37.02;46.07;;
69611;Laerm;56817;52.302;4.844;2022-08-19T00:22:41;38.88;36.15;41.86;;
69611;Laerm;56817;52.302;4.844;2022-08-19T00:22:51;39.74;37.13;46.52;;
69611;Laerm;56817;52.302;4.844;2022-08-19T00:23:02;39.25;35.32;43.26;;
69611;Laerm;56817;52.302;4.844;2022-08-19T00:23:13;38.53;35.17;40.87;;
69611;Laerm;56817;52.302;4.844;2022-08-19T00:23:23;39.31;36.87;42.36;;
69611;Laerm;56817;52.302;4.844;2022-08-19T00:23:34;38.44;35.60;42.04;;
69611;Laerm;56817;52.302;4.844;2022-08-19T00:23:46;37.50;34.20;40.56;;
69611;Laerm;56817;52.302;4.844;2022-08-19T00:23:56;35.65;33.57;37.91;;
69611;Laerm;56817;52.302;4.844;2022-08-19T00:24:08;35.62;33.22;38.43;;
69611;Laerm;56817;52.302;4.844;2022-08-19T00:24:19;35.37;32.66;39.41;;
69611;Laerm;56817;52.302;4.844;2022-08-19T00:24:30;35.31;32.97;38.89;;
69611;Laerm;56817;52.302;4.844;2022-08-19T00:24:41;36.92;34.24;40.81;;
69611;Laerm;56817;52.302;4.844;2022-08-19T00:24:53;37.92;35.37;40.45;;
69611;Laerm;56817;52.302;4.844;2022-08-19T00:25:04;37.45;35.17;40.27;;
69611;Laerm;56817;52.302;4.844;2022-08-19T00:25:15;37.25;34.20;40.15;;
69611;Laerm;56817;52.302;4.844;2022-08-19T00:25:26;37.06;34.76;39.38;;
69611;Laerm;56817;52.302;4.844;2022-08-19T00:25:36;37.52;35.51;41.03;;
69611;Laerm;56817;52.302;4.844;2022-08-19T00:25:46;38.12;35.52;41.14;;
69611;Laerm;56817;52.302;4.844;2022-08-19T00:25:56;37.88;35.57;41.98;;
69611;Laerm;56817;52.302;4.844;2022-08-19T00:26:07;37.57;35.14;39.88;;
69611;Laerm;56817;52.302;4.844;2022-08-19T00:26:17;37.88;35.19;41.00;;
69611;Laerm;56817;52.302;4.844;2022-08-19T00:26:27;38.04;34.48;41.99;;
69611;Laerm;56817;52.302;4.844;2022-08-19T00:26:38;36.02;33.62;38.85;;
69611;Laerm;56817;52.302;4.844;2022-08-19T00:26:48;37.77;34.84;42.54;;
69611;Laerm;56817;52.302;4.844;2022-08-19T00:26:59;36.20;34.33;38.19;;
69611;Laerm;56817;52.302;4.844;2022-08-19T00:27:11;35.61;32.82;37.76;;
69611;Laerm;56817;52.302;4.844;2022-08-19T00:27:22;36.47;34.24;39.58;;
69611;Laerm;56817;52.302;4.844;2022-08-19T00:27:32;36.16;34.26;38.30;;
69611;Laerm;56817;52.302;4.844;2022-08-19T00:27:42;36.15;33.57;38.99;;
69611;Laerm;56817;52.302;4.844;2022-08-19T00:27:52;37.17;34.38;41.02;;
69611;Laerm;56817;52.302;4.844;2022-08-19T00:28:03;37.84;35.89;40.06;;
69611;Laerm;56817;52.302;4.844;2022-08-19T00:28:14;36.85;33.34;39.05;;
69611;Laerm;56817;52.302;4.844;2022-08-19T00:28:24;36.22;33.14;40.26;;
69611;Laerm;56817;52.302;4.844;2022-08-19T00:28:35;36.31;33.55;41.40;;
69611;Laerm;56817;52.302;4.844;2022-08-19T00:28:45;36.89;34.24;38.94;;
69611;Laerm;56817;52.302;4.844;2022-08-19T00:28:57;37.65;35.48;39.67;;
69611;Laerm;56817;52.302;4.844;2022-08-19T00:29:08;36.67;34.18;39.71;;
69611;Laerm;56817;52.302;4.844;2022-08-19T00:29:19;36.22;33.68;43.87;;
69611;Laerm;56817;52.302;4.844;2022-08-19T00:29:30;36.49;34.13;39.10;;
69611;Laerm;56817;52.302;4.844;2022-08-19T00:29:41;37.26;34.95;40.36;;
69611;Laerm;56817;52.302;4.844;2022-08-19T00:29:51;38.76;35.51;41.95;;
69611;Laerm;56817;52.302;4.844;2022-08-19T00:30:02;38.72;35.75;41.10;;
69611;Laerm;56817;52.302;4.844;2022-08-19T00:30:13;38.25;35.95;42.89;;
69611;Laerm;56817;52.302;4.844;2022-08-19T00:30:24;40.95;36.86;53.34;;
69611;Laerm;56817;52.302;4.844;2022-08-19T00:30:34;39.04;36.31;41.84;;
69611;Laerm;56817;52.302;4.844;2022-08-19T00:30:44;38.99;37.14;41.00;;
69611;Laerm;56817;52.302;4.844;2022-08-19T00:30:55;41.97;37.60;47.14;;
69611;Laerm;56817;52.302;4.844;2022-08-19T00:31:06;40.07;36.57;43.48;;
69611;Laerm;56817;52.302;4.844;2022-08-19T00:31:16;38.44;35.19;42.06;;
69611;Laerm;56817;52.302;4.844;2022-08-19T00:31:27;36.50;34.39;39.30;;
69611;Laerm;56817;52.302;4.844;2022-08-19T00:31:38;37.29;35.18;40.16;;
69611;Laerm;56817;52.302;4.844;2022-08-19T00:31:48;37.32;34.37;41.03;;
69611;Laerm;56817;52.302;4.844;2022-08-19T00:32:00;36.14;33.60;40.65;;
69611;Laerm;56817;52.302;4.844;2022-08-19T00:32:10;38.50;35.23;41.48;;
69611;Laerm;56817;52.302;4.844;2022-08-19T00:32:20;39.40;36.72;42.07;;
69611;Laerm;56817;52.302;4.844;2022-08-19T00:32:31;39.83;36.45;44.30;;
69611;Laerm;56817;52.302;4.844;2022-08-19T00:32:42;38.03;35.68;42.91;;
69611;Laerm;56817;52.302;4.844;2022-08-19T00:32:53;37.97;35.45;46.19;;
69611;Laerm;56817;52.302;4.844;2022-08-19T00:33:05;39.54;35.35;43.52;;
69611;Laerm;56817;52.302;4.844;2022-08-19T00:33:15;35.76;33.38;37.89;;
69611;Laerm;56817;52.302;4.844;2022-08-19T00:33:26;35.89;33.00;38.48;;
69611;Laerm;56817;52.302;4.844;2022-08-19T00:33:36;36.91;34.52;39.85;;
69611;Laerm;56817;52.302;4.844;2022-08-19T00:33:47;39.07;36.57;43.27;;
69611;Laerm;56817;52.302;4.844;2022-08-19T00:34:00;41.02;37.76;44.08;;
69611;Laerm;56817;52.302;4.844;2022-08-19T00:34:11;41.36;37.66;47.04;;
69611;Laerm;56817;52.302;4.844;2022-08-19T00:34:22;38.65;36.26;40.76;;
69611;Laerm;56817;52.302;4.844;2022-08-19T00:34:32;39.34;36.37;42.23;;
69611;Laerm;56817;52.302;4.844;2022-08-19T00:34:43;39.57;37.23;42.41;;
69611;Laerm;56817;52.302;4.844;2022-08-19T00:34:53;41.41;37.26;45.22;;
69611;Laerm;56817;52.302;4.844;2022-08-19T00:35:04;40.83;37.07;45.76;;
69611;Laerm;56817;52.302;4.844;2022-08-19T00:35:14;38.63;35.44;41.49;;
69611;Laerm;56817;52.302;4.844;2022-08-19T00:35:25;39.07;36.05;42.45;;
69611;Laerm;56817;52.302;4.844;2022-08-19T00:35:37;39.09;35.74;45.06;;
69611;Laerm;56817;52.302;4.844;2022-08-19T00:35:48;39.16;36.30;42.94;;
69611;Laerm;56817;52.302;4.844;2022-08-19T00:36:02;38.90;35.44;44.35;;
69611;Laerm;56817;52.302;4.844;2022-08-19T00:36:14;37.25;33.63;40.71;;
69611;Laerm;56817;52.302;4.844;2022-08-19T00:36:25;38.17;34.94;41.63;;
69611;Laerm;56817;52.302;4.844;2022-08-19T00:36:35;35.46;33.37;37.71;;
69611;Laerm;56817;52.302;4.844;2022-08-19T00:36:47;36.55;33.99;40.36;;
69611;Laerm;56817;52.302;4.844;2022-08-19T00:36:57;38.14;35.65;41.09;;
69611;Laerm;56817;52.302;4.844;2022-08-19T00:37:07;38.88;36.19;42.83;;
69611;Laerm;56817;52.302;4.844;2022-08-19T00:37:18;38.53;35.31;41.59;;
69611;Laerm;56817;52.302;4.844;2022-08-19T00:37:29;37.39;34.35;43.50;;
69611;Laerm;56817;52.302;4.844;2022-08-19T00:37:39;39.08;36.47;42.10;;
69611;Laerm;56817;52.302;4.844;2022-08-19T00:37:53;40.80;36.89;44.73;;
69611;Laerm;56817;52.302;4.844;2022-08-19T00:38:04;39.92;36.68;44.80;;
69611;Laerm;56817;52.302;4.844;2022-08-19T00:38:15;38.46;35.66;41.85;;
69611;Laerm;56817;52.302;4.844;2022-08-19T00:38:25;39.23;36.08;41.78;;
69611;Laerm;56817;52.302;4.844;2022-08-19T00:38:37;38.88;36.43;42.53;;
69611;Laerm;56817;52.302;4.844;2022-08-19T00:38:49;39.03;36.90;41.94;;
69611;Laerm;56817;52.302;4.844;2022-08-19T00:39:01;38.93;36.31;42.33;;
69611;Laerm;56817;52.302;4.844;2022-08-19T00:39:12;41.08;36.99;44.47;;
69611;Laerm;56817;52.302;4.844;2022-08-19T00:39:23;48.37;41.86;56.11;;
69611;Laerm;56817;52.302;4.844;2022-08-19T00:39:33;50.23;45.53;55.49;;
69611;Laerm;56817;52.302;4.844;2022-08-19T00:39:44;43.90;39.69;48.58;;
69611;Laerm;56817;52.302;4.844;2022-08-19T00:39:54;39.44;35.38;43.10;;
69611;Laerm;56817;52.302;4.844;2022-08-19T00:40:06;37.48;35.23;39.52;;
69611;Laerm;56817;52.302;4.844;2022-08-19T00:40:17;37.11;35.21;40.26;;
69611;Laerm;56817;52.302;4.844;2022-08-19T00:40:29;37.34;34.80;39.94;;
69611;Laerm;56817;52.302;4.844;2022-08-19T00:40:42;37.34;34.75;41.16;;
69611;Laerm;56817;52.302;4.844;2022-08-19T00:40:54;38.12;34.61;42.81;;
69611;Laerm;56817;52.302;4.844;2022-08-19T00:41:05;38.33;36.12;41.32;;
69611;Laerm;56817;52.302;4.844;2022-08-19T00:41:16;38.37;35.57;46.84;;
69611;Laerm;56817;52.302;4.844;2022-08-19T00:41:27;38.31;35.66;41.37;;
69611;Laerm;56817;52.302;4.844;2022-08-19T00:41:38;37.58;35.47;39.63;;
69611;Laerm;56817;52.302;4.844;2022-08-19T00:41:48;37.84;35.56;40.15;;
69611;Laerm;56817;52.302;4.844;2022-08-19T00:41:59;37.52;35.01;40.87;;
69611;Laerm;56817;52.302;4.844;2022-08-19T00:42:10;37.47;34.03;40.26;;
69611;Laerm;56817;52.302;4.844;2022-08-19T00:42:20;38.70;36.06;43.32;;
69611;Laerm;56817;52.302;4.844;2022-08-19T00:42:30;38.52;35.68;43.40;;
69611;Laerm;56817;52.302;4.844;2022-08-19T00:42:41;37.96;35.43;41.23;;
69611;Laerm;56817;52.302;4.844;2022-08-19T00:42:51;37.69;35.35;40.54;;
69611;Laerm;56817;52.302;4.844;2022-08-19T00:43:10;38.09;35.69;41.75;;
69611;Laerm;56817;52.302;4.844;2022-08-19T00:43:24;37.78;34.76;44.50;;
69611;Laerm;56817;52.302;4.844;2022-08-19T00:43:35;36.43;34.32;40.05;;
69611;Laerm;56817;52.302;4.844;2022-08-19T00:43:56;37.93;34.11;43.38;;
69611;Laerm;56817;52.302;4.844;2022-08-19T00:44:12;37.58;34.91;42.70;;
69611;Laerm;56817;52.302;4.844;2022-08-19T00:44:25;37.73;34.33;42.17;;
69611;Laerm;56817;52.302;4.844;2022-08-19T00:44:36;37.59;34.94;41.71;;
69611;Laerm;56817;52.302;4.844;2022-08-19T00:44:46;37.49;35.10;39.77;;
69611;Laerm;56817;52.302;4.844;2022-08-19T00:44:57;40.10;35.04;44.68;;
69611;Laerm;56817;52.302;4.844;2022-08-19T00:45:09;39.82;35.55;48.45;;
69611;Laerm;56817;52.302;4.844;2022-08-19T00:45:21;38.32;34.32;43.20;;
69611;Laerm;56817;52.302;4.844;2022-08-19T00:45:32;36.91;34.03;40.80;;
69611;Laerm;56817;52.302;4.844;2022-08-19T00:45:42;35.37;33.18;38.69;;
69611;Laerm;56817;52.302;4.844;2022-08-19T00:45:53;36.01;33.98;39.26;;
69611;Laerm;56817;52.302;4.844;2022-08-19T00:46:04;37.32;34.72;39.99;;
69611;Laerm;56817;52.302;4.844;2022-08-19T00:46:14;37.36;34.09;41.64;;
69611;Laerm;56817;52.302;4.844;2022-08-19T00:46:25;36.56;34.09;41.03;;
69611;Laerm;56817;52.302;4.844;2022-08-19T00:46:36;37.10;34.02;40.82;;
69611;Laerm;56817;52.302;4.844;2022-08-19T00:46:48;35.13;32.71;37.85;;
69611;Laerm;56817;52.302;4.844;2022-08-19T00:46:59;35.76;33.50;40.24;;
69611;Laerm;56817;52.302;4.844;2022-08-19T00:47:09;34.85;32.92;37.25;;
69611;Laerm;56817;52.302;4.844;2022-08-19T00:47:21;36.03;33.43;39.07;;
69611;Laerm;56817;52.302;4.844;2022-08-19T00:47:31;35.70;32.90;40.59;;
69611;Laerm;56817;52.302;4.844;2022-08-19T00:47:42;37.03;34.22;41.09;;
69611;Laerm;56817;52.302;4.844;2022-08-19T00:47:52;35.95;33.27;39.35;;
69611;Laerm;56817;52.302;4.844;2022-08-19T00:48:03;36.14;34.27;38.83;;
69611;Laerm;56817;52.302;4.844;2022-08-19T00:48:17;37.75;34.16;43.11;;
69611;Laerm;56817;52.302;4.844;2022-08-19T00:48:27;38.44;35.80;41.75;;
69611;Laerm;56817;52.302;4.844;2022-08-19T00:48:38;38.02;34.53;40.95;;
69611;Laerm;56817;52.302;4.844;2022-08-19T00:48:48;37.09;34.23;39.83;;
69611;Laerm;56817;52.302;4.844;2022-08-19T00:48:59;38.58;34.77;43.58;;
69611;Laerm;56817;52.302;4.844;2022-08-19T00:49:12;39.58;34.76;43.77;;
69611;Laerm;56817;52.302;4.844;2022-08-19T00:49:31;38.51;34.61;45.07;;
69611;Laerm;56817;52.302;4.844;2022-08-19T00:49:45;38.29;34.81;42.98;;
69611;Laerm;56817;52.302;4.844;2022-08-19T00:50:00;39.47;34.74;43.84;;
69611;Laerm;56817;52.302;4.844;2022-08-19T00:50:11;39.87;36.59;43.66;;
69611;Laerm;56817;52.302;4.844;2022-08-19T00:50:22;39.62;36.62;42.81;;
69611;Laerm;56817;52.302;4.844;2022-08-19T00:50:33;39.28;35.71;41.72;;
69611;Laerm;56817;52.302;4.844;2022-08-19T00:50:44;39.41;36.03;42.73;;
69611;Laerm;56817;52.302;4.844;2022-08-19T00:50:54;37.76;33.94;41.88;;
69611;Laerm;56817;52.302;4.844;2022-08-19T00:51:05;34.60;32.65;36.34;;
69611;Laerm;56817;52.302;4.844;2022-08-19T00:51:15;35.68;33.02;40.68;;
69611;Laerm;56817;52.302;4.844;2022-08-19T00:51:27;38.99;36.28;42.41;;
69611;Laerm;56817;52.302;4.844;2022-08-19T00:51:39;38.90;35.91;42.93;;
69611;Laerm;56817;52.302;4.844;2022-08-19T00:51:52;37.96;35.20;40.26;;
69611;Laerm;56817;52.302;4.844;2022-08-19T00:52:11;38.29;35.07;42.96;;
69611;Laerm;56817;52.302;4.844;2022-08-19T00:52:23;38.97;35.99;43.42;;
69611;Laerm;56817;52.302;4.844;2022-08-19T00:52:35;38.32;35.26;40.65;;
69611;Laerm;56817;52.302;4.844;2022-08-19T00:52:47;36.89;33.65;40.23;;
69611;Laerm;56817;52.302;4.844;2022-08-19T00:52:58;36.80;33.42;43.69;;
69611;Laerm;56817;52.302;4.844;2022-08-19T00:53:10;38.40;34.44;46.15;;
69611;Laerm;56817;52.302;4.844;2022-08-19T00:53:23;39.02;36.00;41.44;;
69611;Laerm;56817;52.302;4.844;2022-08-19T00:53:34;38.96;35.79;42.40;;
69611;Laerm;56817;52.302;4.844;2022-08-19T00:53:44;38.67;36.03;41.39;;
69611;Laerm;56817;52.302;4.844;2022-08-19T00:53:55;38.01;35.75;42.20;;
69611;Laerm;56817;52.302;4.844;2022-08-19T00:54:06;38.64;36.58;42.70;;
69611;Laerm;56817;52.302;4.844;2022-08-19T00:54:17;38.76;36.62;41.45;;
69611;Laerm;56817;52.302;4.844;2022-08-19T00:54:28;39.99;36.39;44.38;;
69611;Laerm;56817;52.302;4.844;2022-08-19T00:54:41;37.30;34.62;40.65;;
69611;Laerm;56817;52.302;4.844;2022-08-19T00:54:52;35.05;32.69;38.20;;
69611;Laerm;56817;52.302;4.844;2022-08-19T00:55:04;36.33;33.91;38.94;;
69611;Laerm;56817;52.302;4.844;2022-08-19T00:55:17;36.53;33.18;41.83;;
69611;Laerm;56817;52.302;4.844;2022-08-19T00:55:28;36.90;33.69;40.88;;
69611;Laerm;56817;52.302;4.844;2022-08-19T00:55:39;35.42;33.15;37.46;;
69611;Laerm;56817;52.302;4.844;2022-08-19T00:55:51;36.10;33.82;39.48;;
69611;Laerm;56817;52.302;4.844;2022-08-19T00:56:02;36.24;32.80;39.34;;
69611;Laerm;56817;52.302;4.844;2022-08-19T00:56:15;36.66;34.07;39.67;;
69611;Laerm;56817;52.302;4.844;2022-08-19T00:56:26;37.12;34.66;39.68;;
69611;Laerm;56817;52.302;4.844;2022-08-19T00:56:36;37.54;35.03;39.55;;
69611;Laerm;56817;52.302;4.844;2022-08-19T00:56:47;35.90;33.83;38.23;;
69611;Laerm;56817;52.302;4.844;2022-08-19T00:56:59;34.58;31.38;39.72;;
69611;Laerm;56817;52.302;4.844;2022-08-19T00:57:10;33.47;31.38;35.61;;
69611;Laerm;56817;52.302;4.844;2022-08-19T00:57:25;34.21;32.16;36.72;;
69611;Laerm;56817;52.302;4.844;2022-08-19T00:57:38;34.15;31.92;37.38;;
69611;Laerm;56817;52.302;4.844;2022-08-19T00:57:50;35.40;32.95;37.56;;
69611;Laerm;56817;52.302;4.844;2022-08-19T00:58:04;35.69;33.64;37.51;;
69611;Laerm;56817;52.302;4.844;2022-08-19T00:58:18;35.66;33.64;39.10;;
69611;Laerm;56817;52.302;4.844;2022-08-19T00:58:30;35.63;33.57;38.53;;
69611;Laerm;56817;52.302;4.844;2022-08-19T00:58:41;35.60;33.41;38.62;;
69611;Laerm;56817;52.302;4.844;2022-08-19T00:58:52;34.65;33.08;36.55;;
69611;Laerm;56817;52.302;4.844;2022-08-19T00:59:04;34.95;32.72;38.00;;
69611;Laerm;56817;52.302;4.844;2022-08-19T00:59:19;36.56;33.13;41.82;;
69611;Laerm;56817;52.302;4.844;2022-08-19T00:59:29;36.18;33.00;39.05;;
69611;Laerm;56817;52.302;4.844;2022-08-19T00:59:40;38.16;36.04;40.49;;
69611;Laerm;56817;52.302;4.844;2022-08-19T00:59:52;40.32;35.46;43.33;;
69611;Laerm;56817;52.302;4.844;2022-08-19T01:00:08;42.42;35.68;49.08;;
69611;Laerm;56817;52.302;4.844;2022-08-19T01:00:21;39.51;34.50;43.78;;
69611;Laerm;56817;52.302;4.844;2022-08-19T01:00:31;35.54;33.07;37.15;;
69611;Laerm;56817;52.302;4.844;2022-08-19T01:00:45;36.07;33.66;38.86;;
69611;Laerm;56817;52.302;4.844;2022-08-19T01:00:56;35.76;33.90;38.28;;
69611;Laerm;56817;52.302;4.844;2022-08-19T01:01:06;35.28;33.47;36.89;;
69611;Laerm;56817;52.302;4.844;2022-08-19T01:01:17;34.24;32.18;36.54;;
69611;Laerm;56817;52.302;4.844;2022-08-19T01:01:28;35.91;32.63;39.19;;
69611;Laerm;56817;52.302;4.844;2022-08-19T01:01:39;33.42;31.90;35.39;;
69611;Laerm;56817;52.302;4.844;2022-08-19T01:01:50;36.36;32.53;39.24;;
69611;Laerm;56817;52.302;4.844;2022-08-19T01:02:01;35.11;32.03;38.78;;
69611;Laerm;56817;52.302;4.844;2022-08-19T01:02:11;33.73;31.76;36.29;;
69611;Laerm;56817;52.302;4.844;2022-08-19T01:02:23;34.80;31.84;36.83;;
69611;Laerm;56817;52.302;4.844;2022-08-19T01:02:33;34.21;31.10;37.76;;